^^
TXWeather Station Historical Data
Daily Summary for January 26, 2022 Units:  Metric    English   Both
Daily Weekly Monthly Yearly Custom
  High: Low: Average:
Temperature: 14.4 °C 3.3 °C 8.5 °C
Dew Point: 6.7 °C 0 °C 3.2 °C
Humidity: 88% 53% 71%
Wind Speed: 20.9km/h 0km/h 8km/h
Wind Gust: 22.5km/h - -
Wind- - NE
Pressure: 1029.3 hPa 1026 hPa -
Precipitation: 0 mm    
Historical Graphs
 
 
Tabular Data for January 26, 2022
Time Temperature Dew Point Pressure Wind Wind Speed Wind Gust Humidity Rainfall Rate (Hourly) solar
00:04 8.9 °C 6.1 °C 1026 hPa NE 3.2 km/h 3.2 km/h 85% 0 mm 0.00 W/m2
00:09 8.9 °C 6.7 °C 1026 hPa ENE 4.8 km/h 4.8 km/h 86% 0 mm 0.00 W/m2
00:14 8.3 °C 6.1 °C 1026 hPa ENE 4.8 km/h 4.8 km/h 86% 0 mm 0.00 W/m2
00:19 8.3 °C 6.1 °C 1026 hPa NE 8 km/h 8 km/h 86% 0 mm 0.00 W/m2
00:24 8.3 °C 6.1 °C 1026 hPa NNE 6.4 km/h 6.4 km/h 86% 0 mm 0.00 W/m2
00:29 8.3 °C 6.1 °C 1026 hPa NE 4.8 km/h 6.4 km/h 86% 0 mm 0.00 W/m2
00:34 8.3 °C 6.1 °C 1026 hPa NE 8 km/h 8 km/h 86% 0 mm 0.00 W/m2
00:39 8.3 °C 6.1 °C 1026 hPa NE 6.4 km/h 8 km/h 86% 0 mm 0.00 W/m2
00:44 8.3 °C 6.1 °C 1026 hPa NE 6.4 km/h 8 km/h 86% 0 mm 0.00 W/m2
00:49 8.3 °C 6.1 °C 1026 hPa NE 8 km/h 8 km/h 87% 0 mm 0.00 W/m2
00:54 8.3 °C 6.1 °C 1026 hPa NE 8 km/h 9.7 km/h 87% 0 mm 0.00 W/m2
00:59 8.3 °C 6.1 °C 1026 hPa NE 4.8 km/h 4.8 km/h 87% 0 mm 0.00 W/m2
01:04 8.3 °C 6.1 °C 1026 hPa NNE 8 km/h 8 km/h 87% 0 mm 0.00 W/m2
01:09 8.3 °C 6.1 °C 1026 hPa NE 4.8 km/h 4.8 km/h 87% 0 mm 0.00 W/m2
01:14 8.3 °C 6.1 °C 1026 hPa North 6.4 km/h 6.4 km/h 87% 0 mm 0.00 W/m2
01:19 8.3 °C 6.1 °C 1026 hPa NNE 12.9 km/h 12.9 km/h 87% 0 mm 0.00 W/m2
01:24 8.3 °C 6.1 °C 1026 hPa NNE 9.7 km/h 12.9 km/h 87% 0 mm 0.00 W/m2
01:29 8.3 °C 6.1 °C 1026 hPa NE 8 km/h 8 km/h 87% 0 mm 0.00 W/m2
01:34 7.8 °C 6.1 °C 1026 hPa NE 4.8 km/h 8 km/h 87% 0 mm 0.00 W/m2
01:39 7.8 °C 6.1 °C 1026 hPa NE 4.8 km/h 4.8 km/h 87% 0 mm 0.00 W/m2
01:44 7.8 °C 6.1 °C 1026 hPa NE 3.2 km/h 4.8 km/h 87% 0 mm 0.00 W/m2
01:49 7.8 °C 5.6 °C 1026 hPa NE 4.8 km/h 4.8 km/h 87% 0 mm 0.00 W/m2
01:54 7.8 °C 5.6 °C 1026 hPa NE 4.8 km/h 4.8 km/h 87% 0 mm 0.00 W/m2
01:59 7.8 °C 5.6 °C 1026 hPa ENE 4.8 km/h 6.4 km/h 87% 0 mm 0.00 W/m2
02:04 7.8 °C 5.6 °C 1026 hPa NE 4.8 km/h 4.8 km/h 87% 0 mm 0.00 W/m2
02:09 7.8 °C 5.6 °C 1026 hPa NE 8 km/h 8 km/h 87% 0 mm 0.00 W/m2
02:14 7.8 °C 5.6 °C 1026 hPa NE 8 km/h 9.7 km/h 87% 0 mm 0.00 W/m2
02:19 7.2 °C 5.6 °C 1026 hPa NE 8 km/h 9.7 km/h 87% 0 mm 0.00 W/m2
02:24 7.2 °C 5.6 °C 1026 hPa NE 6.4 km/h 9.7 km/h 87% 0 mm 0.00 W/m2
02:29 7.2 °C 5.6 °C 1026 hPa NE 6.4 km/h 8 km/h 87% 0 mm 0.00 W/m2
02:34 7.2 °C 5 °C 1026 hPa NNE 4.8 km/h 6.4 km/h 87% 0 mm 0.00 W/m2
02:39 7.2 °C 5 °C 1026 hPa NE 6.4 km/h 8 km/h 87% 0 mm 0.00 W/m2
02:44 7.2 °C 5 °C 1026 hPa NE 8 km/h 8 km/h 87% 0 mm 0.00 W/m2
02:49 7.2 °C 5 °C 1026 hPa NE 4.8 km/h 6.4 km/h 87% 0 mm 0.00 W/m2
02:54 6.7 °C 5 °C 1026 hPa NE 4.8 km/h 6.4 km/h 87% 0 mm 0.00 W/m2
02:59 6.7 °C 5 °C 1026 hPa NE 4.8 km/h 6.4 km/h 87% 0 mm 0.00 W/m2
03:04 6.7 °C 5 °C 1026 hPa NE 4.8 km/h 6.4 km/h 87% 0 mm 0.00 W/m2
03:09 6.7 °C 5 °C 1026 hPa NE 4.8 km/h 4.8 km/h 87% 0 mm 0.00 W/m2
03:14 6.7 °C 5 °C 1026 hPa NE 6.4 km/h 6.4 km/h 88% 0 mm 0.00 W/m2
03:19 6.7 °C 5 °C 1026 hPa NNE 6.4 km/h 6.4 km/h 88% 0 mm 0.00 W/m2
03:24 6.7 °C 5 °C 1026 hPa NNE 6.4 km/h 6.4 km/h 88% 0 mm 0.00 W/m2
03:29 6.7 °C 5 °C 1026 hPa NNE 11.3 km/h 11.3 km/h 88% 0 mm 0.00 W/m2
03:34 6.7 °C 5 °C 1026 hPa NNE 11.3 km/h 14.5 km/h 88% 0 mm 0.00 W/m2
03:39 6.7 °C 5 °C 1026 hPa NE 16.1 km/h 17.7 km/h 88% 0 mm 0.00 W/m2
03:44 6.7 °C 5 °C 1026 hPa NE 9.7 km/h 12.9 km/h 88% 0 mm 0.00 W/m2
03:49 6.7 °C 4.4 °C 1026 hPa NE 14.5 km/h 16.1 km/h 87% 0 mm 0.00 W/m2
03:54 6.1 °C 4.4 °C 1026 hPa NE 12.9 km/h 14.5 km/h 87% 0 mm 0.00 W/m2
03:59 6.1 °C 4.4 °C 1026 hPa NNE 11.3 km/h 12.9 km/h 87% 0 mm 0.00 W/m2
04:04 6.1 °C 3.9 °C 1026 hPa NE 12.9 km/h 12.9 km/h 87% 0 mm 0.00 W/m2
04:09 6.1 °C 3.9 °C 1026 hPa NNE 14.5 km/h 16.1 km/h 87% 0 mm 0.00 W/m2
04:14 5.6 °C 3.9 °C 1026 hPa NE 9.7 km/h 16.1 km/h 86% 0 mm 0.00 W/m2
04:19 5.6 °C 3.9 °C 1026 hPa NE 8 km/h 9.7 km/h 86% 0 mm 0.00 W/m2
04:24 5.6 °C 3.9 °C 1026 hPa NNE 9.7 km/h 9.7 km/h 86% 0 mm 0.00 W/m2
04:29 5.6 °C 3.3 °C 1026 hPa NE 8 km/h 9.7 km/h 86% 0 mm 0.00 W/m2
04:34 5.6 °C 3.3 °C 1026 hPa NE 4.8 km/h 4.8 km/h 86% 0 mm 0.00 W/m2
04:39 5.6 °C 3.3 °C 1026 hPa NE 8 km/h 11.3 km/h 86% 0 mm 0.00 W/m2
04:44 5.6 °C 3.3 °C 1026 hPa NNE 11.3 km/h 12.9 km/h 85% 0 mm 0.00 W/m2
04:49 5.6 °C 3.3 °C 1026 hPa NNE 8 km/h 12.9 km/h 85% 0 mm 0.00 W/m2
04:54 5.6 °C 3.3 °C 1026 hPa NNE 11.3 km/h 11.3 km/h 85% 0 mm 0.00 W/m2
04:59 5.6 °C 2.8 °C 1026 hPa NNE 8 km/h 11.3 km/h 85% 0 mm 0.00 W/m2
05:04 5.6 °C 2.8 °C 1026 hPa NNE 9.7 km/h 14.5 km/h 85% 0 mm 0.00 W/m2
05:09 5 °C 2.8 °C 1026 hPa NNE 16.1 km/h 16.1 km/h 85% 0 mm 0.00 W/m2
05:14 5 °C 2.8 °C 1026 hPa NNE 12.9 km/h 16.1 km/h 85% 0 mm 0.00 W/m2
05:19 5 °C 2.8 °C 1026 hPa NNE 11.3 km/h 16.1 km/h 85% 0 mm 0.00 W/m2
05:24 5 °C 2.8 °C 1026 hPa NNE 16.1 km/h 16.1 km/h 85% 0 mm 0.00 W/m2
05:29 5 °C 2.8 °C 1026 hPa NNE 11.3 km/h 16.1 km/h 85% 0 mm 0.00 W/m2
05:34 5 °C 2.8 °C 1026 hPa NNE 19.3 km/h 22.5 km/h 85% 0 mm 0.00 W/m2
05:39 5 °C 2.2 °C 1026 hPa NE 14.5 km/h 14.5 km/h 84% 0 mm 0.00 W/m2
05:44 4.4 °C 2.2 °C 1026 hPa NE 19.3 km/h 19.3 km/h 84% 0 mm 0.00 W/m2
05:49 4.4 °C 2.2 °C 1026 hPa NNE 12.9 km/h 19.3 km/h 84% 0 mm 0.00 W/m2
05:54 4.4 °C 2.2 °C 1026 hPa NNE 14.5 km/h 16.1 km/h 84% 0 mm 0.00 W/m2
05:59 4.4 °C 1.7 °C 1026 hPa NNE 8 km/h 14.5 km/h 83% 0 mm 0.00 W/m2
06:04 4.4 °C 1.7 °C 1026 hPa NNE 12.9 km/h 16.1 km/h 83% 0 mm 0.00 W/m2
06:09 4.4 °C 1.7 °C 1026 hPa NE 12.9 km/h 16.1 km/h 83% 0 mm 0.00 W/m2
06:14 4.4 °C 1.7 °C 1026 hPa NE 11.3 km/h 14.5 km/h 83% 0 mm 0.00 W/m2
06:19 4.4 °C 1.7 °C 1026 hPa NE 11.3 km/h 16.1 km/h 82% 0 mm 0.00 W/m2
06:24 3.9 °C 1.1 °C 1026 hPa NNE 16.1 km/h 16.1 km/h 82% 0 mm 0.00 W/m2
06:29 3.9 °C 1.1 °C 1026 hPa NNE 12.9 km/h 16.1 km/h 82% 0 mm 0.00 W/m2
06:34 3.9 °C 1.1 °C 1026 hPa NNE 16.1 km/h 16.1 km/h 81% 0 mm 0.00 W/m2
06:39 3.9 °C 1.1 °C 1026 hPa NNE 14.5 km/h 14.5 km/h 81% 0 mm 0.00 W/m2
06:44 3.9 °C 1.1 °C 1029.3 hPa NE 9.7 km/h 14.5 km/h 81% 0 mm 0.00 W/m2
06:49 3.9 °C 0.6 °C 1029.3 hPa NE 9.7 km/h 12.9 km/h 81% 0 mm 0.00 W/m2
06:54 3.9 °C 0.6 °C 1029.3 hPa NE 14.5 km/h 14.5 km/h 81% 0 mm 0.00 W/m2
06:59 3.9 °C 0.6 °C 1029.3 hPa NNE 16.1 km/h 16.1 km/h 81% 0 mm 0.00 W/m2
07:04 3.9 °C 0.6 °C 1029.3 hPa NNE 14.5 km/h 16.1 km/h 81% 0 mm 0.00 W/m2
07:09 3.9 °C 0.6 °C 1029.3 hPa NNE 9.7 km/h 14.5 km/h 81% 0 mm 0.00 W/m2
07:14 3.9 °C 0.6 °C 1029.3 hPa NNE 9.7 km/h 9.7 km/h 81% 0 mm 0.00 W/m2
07:19 3.3 °C 0.6 °C 1029.3 hPa NNE 9.7 km/h 14.5 km/h 81% 0 mm 5.00 W/m2
07:24 3.3 °C 0.6 °C 1029.3 hPa NNE 12.9 km/h 16.1 km/h 80% 0 mm 7.00 W/m2
07:29 3.3 °C 0 °C 1029.3 hPa NNE 12.9 km/h 16.1 km/h 80% 0 mm 9.00 W/m2
07:34 3.3 °C 0 °C 1029.3 hPa NNE 14.5 km/h 16.1 km/h 80% 0 mm 12.00 W/m2
07:39 3.3 °C 0 °C 1029.3 hPa NNE 14.5 km/h 16.1 km/h 80% 0 mm 14.00 W/m2
07:44 3.3 °C 0 °C 1029.3 hPa NNE 11.3 km/h 16.1 km/h 79% 0 mm 19.00 W/m2
07:49 3.3 °C 0 °C 1029.3 hPa NE 16.1 km/h 16.1 km/h 79% 0 mm 19.00 W/m2
07:54 3.3 °C 0 °C 1029.3 hPa NE 16.1 km/h 16.1 km/h 79% 0 mm 21.00 W/m2
07:59 3.3 °C 0 °C 1029.3 hPa NE 9.7 km/h 11.3 km/h 78% 0 mm 25.00 W/m2
08:04 3.3 °C 0 °C 1029.3 hPa NNE 14.5 km/h 16.1 km/h 78% 0 mm 25.00 W/m2
08:09 3.3 °C 0 °C 1029.3 hPa NE 14.5 km/h 16.1 km/h 78% 0 mm 77.00 W/m2
08:14 3.3 °C 0 °C 1029.3 hPa NE 12.9 km/h 17.7 km/h 77% 0 mm 120.00 W/m2
08:19 3.3 °C 0 °C 1029.3 hPa NNE 6.4 km/h 11.3 km/h 77% 0 mm 128.00 W/m2
08:24 3.9 °C 0 °C 1029.3 hPa NE 16.1 km/h 16.1 km/h 77% 0 mm 118.00 W/m2
08:29 3.9 °C 0 °C 1029.3 hPa NNE 17.7 km/h 19.3 km/h 77% 0 mm 114.00 W/m2
08:34 3.9 °C 0 °C 1029.3 hPa NE 17.7 km/h 19.3 km/h 76% 0 mm 179.00 W/m2
08:39 3.9 °C 0 °C 1029.3 hPa NE 20.9 km/h 20.9 km/h 75% 0 mm 179.00 W/m2
08:44 3.9 °C 0 °C 1029.3 hPa NNE 19.3 km/h 20.9 km/h 75% 0 mm 146.00 W/m2
08:49 3.9 °C 0 °C 1029.3 hPa NE 11.3 km/h 19.3 km/h 74% 0 mm 121.00 W/m2
08:54 4.4 °C 0 °C 1029.3 hPa NNE 17.7 km/h 17.7 km/h 74% 0 mm 113.00 W/m2
08:59 4.4 °C 0 °C 1029.3 hPa NNE 16.1 km/h 16.1 km/h 74% 0 mm 248.00 W/m2
09:04 4.4 °C 0.6 °C 1029.3 hPa NE 8 km/h 17.7 km/h 74% 0 mm 264.00 W/m2
09:09 4.4 °C 0 °C 1029.3 hPa NNE 14.5 km/h 16.1 km/h 73% 0 mm 330.00 W/m2
09:14 5 °C 0 °C 1029.3 hPa NE 11.3 km/h 12.9 km/h 73% 0 mm 338.00 W/m2
09:19 5 °C 0 °C 1029.3 hPa NE 14.5 km/h 14.5 km/h 72% 0 mm 334.00 W/m2
09:24 5 °C 0 °C 1029.3 hPa NNE 12.9 km/h 14.5 km/h 71% 0 mm 294.00 W/m2
09:29 5 °C 0.6 °C 1029.3 hPa NNE 17.7 km/h 20.9 km/h 71% 0 mm 295.00 W/m2
09:34 5 °C 0 °C 1029.3 hPa NNE 16.1 km/h 17.7 km/h 70% 0 mm 374.00 W/m2
09:39 5.6 °C 0.6 °C 1029.3 hPa NNE 16.1 km/h 17.7 km/h 70% 0 mm 404.00 W/m2
09:44 5.6 °C 0.6 °C 1029.3 hPa ENE 12.9 km/h 17.7 km/h 70% 0 mm 434.00 W/m2
09:49 5.6 °C 0.6 °C 1029.3 hPa ENE 9.7 km/h 16.1 km/h 69% 0 mm 348.00 W/m2
09:54 5.6 °C 0.6 °C 1029.3 hPa NE 11.3 km/h 16.1 km/h 69% 0 mm 408.00 W/m2
09:59 6.1 °C 0.6 °C 1029.3 hPa NNE 14.5 km/h 16.1 km/h 68% 0 mm 482.00 W/m2
10:04 6.1 °C 0.6 °C 1029.3 hPa ENE 11.3 km/h 11.3 km/h 68% 0 mm 497.00 W/m2
10:09 6.7 °C 0.6 °C 1029.3 hPa NNE 11.3 km/h 11.3 km/h 67% 0 mm 508.00 W/m2
10:14 6.7 °C 0.6 °C 1029.3 hPa ENE 12.9 km/h 12.9 km/h 67% 0 mm 510.00 W/m2
10:19 7.2 °C 1.7 °C 1029.3 hPa NNE 12.9 km/h 12.9 km/h 66% 0 mm 522.00 W/m2
10:24 7.2 °C 1.1 °C 1029.3 hPa NE 11.3 km/h 14.5 km/h 66% 0 mm 522.00 W/m2
10:29 7.8 °C 1.1 °C 1029.3 hPa East 11.3 km/h 11.3 km/h 63% 0 mm 557.00 W/m2
10:34 7.8 °C 1.1 °C 1029.3 hPa NNE 12.9 km/h 14.5 km/h 63% 0 mm 580.00 W/m2
10:39 8.3 °C 1.7 °C 1029.3 hPa North 11.3 km/h 14.5 km/h 63% 0 mm 598.00 W/m2
10:44 8.3 °C 1.7 °C 1029.3 hPa NNE 6.4 km/h 11.3 km/h 62% 0 mm 642.00 W/m2
10:49 8.3 °C 1.1 °C 1029.3 hPa NE 11.3 km/h 12.9 km/h 62% 0 mm 643.00 W/m2
10:54 8.3 °C 1.7 °C 1029.3 hPa North 14.5 km/h 14.5 km/h 62% 0 mm 707.00 W/m2
10:59 8.3 °C 1.7 °C 1029.3 hPa ENE 8 km/h 14.5 km/h 62% 0 mm 694.00 W/m2
11:04 8.3 °C 1.1 °C 1029.3 hPa NNE 11.3 km/h 11.3 km/h 60% 0 mm 394.00 W/m2
11:09 8.9 °C 1.7 °C 1029.3 hPa NNE 9.7 km/h 9.7 km/h 61% 0 mm 687.00 W/m2
11:14 8.9 °C 1.7 °C 1029.3 hPa NNE 12.9 km/h 17.7 km/h 60% 0 mm 661.00 W/m2
11:19 8.9 °C 1.7 °C 1029.3 hPa NE 8 km/h 17.7 km/h 60% 0 mm 680.00 W/m2
11:24 8.9 °C 1.7 °C 1029.3 hPa NNE 14.5 km/h 14.5 km/h 59% 0 mm 689.00 W/m2
11:29 9.4 °C 1.7 °C 1029.3 hPa NE 8 km/h 14.5 km/h 59% 0 mm 689.00 W/m2
11:34 8.9 °C 1.1 °C 1029.3 hPa NNE 8 km/h 8 km/h 58% 0 mm 640.00 W/m2
11:39 8.9 °C 1.1 °C 1029.3 hPa ENE 8 km/h 12.9 km/h 58% 0 mm 612.00 W/m2
11:44 8.9 °C 1.7 °C 1029.3 hPa NE 9.7 km/h 9.7 km/h 59% 0 mm 513.00 W/m2
11:49 9.4 °C 1.7 °C 1029.3 hPa NNE 4.8 km/h 9.7 km/h 58% 0 mm 687.00 W/m2
11:54 10 °C 1.7 °C 1029.3 hPa NE 8 km/h 8 km/h 58% 0 mm 714.00 W/m2
11:59 10 °C 1.7 °C 1029.3 hPa NNE 8 km/h 9.7 km/h 58% 0 mm 712.00 W/m2
12:04 10 °C 1.7 °C 1029.3 hPa NE 4.8 km/h 6.4 km/h 56% 0 mm 710.00 W/m2
12:09 10.6 °C 2.2 °C 1029.3 hPa North 14.5 km/h 14.5 km/h 58% 0 mm 664.00 W/m2
12:14 10.6 °C 1.7 °C 1029.3 hPa NNE 12.9 km/h 14.5 km/h 56% 0 mm 643.00 W/m2
12:19 10.6 °C 2.2 °C 1029.3 hPa NE 6.4 km/h 12.9 km/h 56% 0 mm 773.00 W/m2
12:24 10.6 °C 2.2 °C 1029.3 hPa NNE 11.3 km/h 14.5 km/h 56% 0 mm 512.00 W/m2
12:29 10.6 °C 2.2 °C 1029.3 hPa ENE 4.8 km/h 14.5 km/h 59% 0 mm 411.00 W/m2
12:34 10 °C 2.8 °C 1029.3 hPa NE 6.4 km/h 6.4 km/h 60% 0 mm 696.00 W/m2
12:39 10.6 °C 3.3 °C 1029.3 hPa ENE 6.4 km/h 8 km/h 60% 0 mm 756.00 W/m2
12:44 11.7 °C 3.9 °C 1029.3 hPa NNE 9.7 km/h 9.7 km/h 60% 0 mm 867.00 W/m2
12:49 11.7 °C 3.9 °C 1026 hPa NE 9.7 km/h 12.9 km/h 59% 0 mm 875.00 W/m2
12:54 12.2 °C 3.9 °C 1026 hPa NNE 6.4 km/h 8 km/h 57% 0 mm 896.00 W/m2
12:59 12.2 °C 3.9 °C 1026 hPa ESE 12.9 km/h 12.9 km/h 57% 0 mm 879.00 W/m2
13:04 12.8 °C 4.4 °C 1026 hPa NE 8 km/h 8 km/h 57% 0 mm 826.00 W/m2
13:09 12.8 °C 3.9 °C 1026 hPa ENE 8 km/h 9.7 km/h 55% 0 mm 728.00 W/m2
13:14 12.2 °C 3.9 °C 1026 hPa NE 9.7 km/h 12.9 km/h 57% 0 mm 701.00 W/m2
13:19 12.2 °C 3.9 °C 1026 hPa North 9.7 km/h 9.7 km/h 57% 0 mm 724.00 W/m2
13:24 12.2 °C 3.9 °C 1026 hPa North 8 km/h 9.7 km/h 57% 0 mm 698.00 W/m2
13:29 12.2 °C 3.9 °C 1026 hPa NE 11.3 km/h 14.5 km/h 56% 0 mm 682.00 W/m2
13:34 12.2 °C 3.3 °C 1026 hPa East 6.4 km/h 14.5 km/h 55% 0 mm 598.00 W/m2
13:39 12.2 °C 3.9 °C 1026 hPa NNE 9.7 km/h 9.7 km/h 56% 0 mm 698.00 W/m2
13:44 12.8 °C 4.4 °C 1026 hPa ENE 6.4 km/h 9.7 km/h 57% 0 mm 707.00 W/m2
13:49 13.3 °C 4.4 °C 1026 hPa ESE 4.8 km/h 9.7 km/h 55% 0 mm 694.00 W/m2
13:54 13.3 °C 4.4 °C 1026 hPa ENE 8 km/h 8 km/h 55% 0 mm 670.00 W/m2
13:59 13.3 °C 4.4 °C 1026 hPa North 8 km/h 8 km/h 55% 0 mm 666.00 W/m2
14:04 13.3 °C 4.4 °C 1026 hPa North 9.7 km/h 9.7 km/h 54% 0 mm 652.00 W/m2
14:09 12.8 °C 3.9 °C 1026 hPa NNW 9.7 km/h 11.3 km/h 54% 0 mm 679.00 W/m2
14:14 13.3 °C 4.4 °C 1026 hPa NNE 11.3 km/h 11.3 km/h 56% 0 mm 675.00 W/m2
14:19 13.3 °C 4.4 °C 1026 hPa ENE 6.4 km/h 6.4 km/h 54% 0 mm 624.00 W/m2
14:24 13.3 °C 4.4 °C 1026 hPa WNW 8 km/h 12.9 km/h 55% 0 mm 619.00 W/m2
14:29 13.3 °C 4.4 °C 1026 hPa NNE 14.5 km/h 16.1 km/h 55% 0 mm 619.00 W/m2
14:34 13.9 °C 4.4 °C 1026 hPa East 12.9 km/h 12.9 km/h 54% 0 mm 585.00 W/m2
14:39 13.9 °C 4.4 °C 1026 hPa East 11.3 km/h 12.9 km/h 54% 0 mm 575.00 W/m2
14:44 13.3 °C 4.4 °C 1026 hPa East 12.9 km/h 12.9 km/h 55% 0 mm 563.00 W/m2
14:49 13.9 °C 5 °C 1026 hPa NE 8 km/h 8 km/h 55% 0 mm 555.00 W/m2
14:54 13.9 °C 5 °C 1026 hPa NNE 8 km/h 8 km/h 55% 0 mm 545.00 W/m2
14:59 13.9 °C 4.4 °C 1026 hPa South 6.4 km/h 6.4 km/h 55% 0 mm 531.00 W/m2
15:04 13.9 °C 4.4 °C 1026 hPa ESE 6.4 km/h 8 km/h 55% 0 mm 517.00 W/m2
15:09 13.9 °C 5 °C 1026 hPa ESE 9.7 km/h 9.7 km/h 55% 0 mm 501.00 W/m2
15:14 13.9 °C 5 °C 1026 hPa ESE 6.4 km/h 11.3 km/h 55% 0 mm 489.00 W/m2
15:19 13.9 °C 5 °C 1026 hPa NE 8 km/h 9.7 km/h 55% 0 mm 475.00 W/m2
15:24 13.9 °C 5 °C 1026 hPa NE 8 km/h 9.7 km/h 54% 0 mm 457.00 W/m2
15:29 13.9 °C 5 °C 1026 hPa NE 14.5 km/h 14.5 km/h 54% 0 mm 448.00 W/m2
15:34 13.9 °C 5 °C 1026 hPa NNE 9.7 km/h 14.5 km/h 54% 0 mm 436.00 W/m2
15:39 13.9 °C 5 °C 1026 hPa NE 6.4 km/h 8 km/h 55% 0 mm 415.00 W/m2
15:44 14.4 °C 5 °C 1026 hPa NNE 8 km/h 8 km/h 54% 0 mm 403.00 W/m2
15:49 14.4 °C 5 °C 1026 hPa NNE 6.4 km/h 6.4 km/h 54% 0 mm 383.00 W/m2
15:54 14.4 °C 5 °C 1026 hPa NNE 6.4 km/h 8 km/h 53% 0 mm 373.00 W/m2
15:59 14.4 °C 5 °C 1026 hPa NE 9.7 km/h 9.7 km/h 53% 0 mm 357.00 W/m2
16:04 13.9 °C 5 °C 1026 hPa NE 9.7 km/h 9.7 km/h 53% 0 mm 341.00 W/m2
16:09 13.9 °C 5 °C 1026 hPa NNE 4.8 km/h 6.4 km/h 54% 0 mm 325.00 W/m2
16:14 13.9 °C 5 °C 1026 hPa NE 8 km/h 8 km/h 54% 0 mm 306.00 W/m2
16:19 13.9 °C 5 °C 1026 hPa ENE 6.4 km/h 6.4 km/h 54% 0 mm 292.00 W/m2
16:24 13.9 °C 5 °C 1026 hPa NNE 6.4 km/h 6.4 km/h 54% 0 mm 272.00 W/m2
16:29 13.9 °C 5 °C 1026 hPa NE 3.2 km/h 4.8 km/h 54% 0 mm 255.00 W/m2
16:34 13.9 °C 5 °C 1026 hPa NE 9.7 km/h 9.7 km/h 54% 0 mm 135.00 W/m2
16:39 13.9 °C 5 °C 1026 hPa North 6.4 km/h 6.4 km/h 54% 0 mm 121.00 W/m2
16:44 13.9 °C 5 °C 1026 hPa NE 4.8 km/h 6.4 km/h 54% 0 mm 72.00 W/m2
16:49 13.9 °C 5 °C 1026 hPa ENE 3.2 km/h 4.8 km/h 54% 0 mm 58.00 W/m2
16:54 13.9 °C 5 °C 1026 hPa East 3.2 km/h 4.8 km/h 55% 0 mm 56.00 W/m2
16:59 13.9 °C 5 °C 1026 hPa East 3.2 km/h 4.8 km/h 54% 0 mm 35.00 W/m2
17:04 13.9 °C 5 °C 1026 hPa SE 3.2 km/h 3.2 km/h 54% 0 mm 72.00 W/m2
17:09 13.9 °C 5 °C 1026 hPa SE 4.8 km/h 4.8 km/h 54% 0 mm 67.00 W/m2
17:14 13.9 °C 5 °C 1026 hPa East 4.8 km/h 4.8 km/h 55% 0 mm 40.00 W/m2
17:19 13.9 °C 5 °C 1026 hPa NE 3.2 km/h 3.2 km/h 55% 0 mm 40.00 W/m2
17:24 13.3 °C 4.4 °C 1026 hPa ENE 3.2 km/h 3.2 km/h 55% 0 mm 30.00 W/m2
17:29 13.3 °C 5 °C 1026 hPa ENE 3.2 km/h 4.8 km/h 56% 0 mm 21.00 W/m2
17:34 13.3 °C 5 °C 1026 hPa East 4.8 km/h 4.8 km/h 56% 0 mm 18.00 W/m2
17:39 13.3 °C 4.4 °C 1026 hPa ESE 3.2 km/h 4.8 km/h 56% 0 mm 14.00 W/m2
17:44 13.3 °C 4.4 °C 1026 hPa ESE 3.2 km/h 3.2 km/h 56% 0 mm 11.00 W/m2
17:49 13.3 °C 4.4 °C 1026 hPa East 1.6 km/h 4.8 km/h 57% 0 mm 7.00 W/m2
17:54 12.8 °C 4.4 °C 1026 hPa NE 3.2 km/h 3.2 km/h 58% 0 mm 5.00 W/m2
17:59 12.8 °C 4.4 °C 1026 hPa NE 3.2 km/h 3.2 km/h 58% 0 mm 0.00 W/m2
18:04 12.8 °C 5 °C 1026 hPa NE 3.2 km/h 3.2 km/h 59% 0 mm 0.00 W/m2
18:09 12.2 °C 5 °C 1026 hPa NE 3.2 km/h 3.2 km/h 60% 0 mm 0.00 W/m2
18:14 12.2 °C 5 °C 1026 hPa NE 1.6 km/h 3.2 km/h 61% 0 mm 0.00 W/m2
18:19 12.2 °C 5 °C 1026 hPa NE 3.2 km/h 3.2 km/h 61% 0 mm 0.00 W/m2
18:24 11.7 °C 5 °C 1026 hPa NE 3.2 km/h 3.2 km/h 62% 0 mm 0.00 W/m2
18:29 11.7 °C 5 °C 1026 hPa NE 3.2 km/h 3.2 km/h 63% 0 mm 0.00 W/m2
18:34 11.7 °C 5 °C 1026 hPa NE 3.2 km/h 3.2 km/h 63% 0 mm 0.00 W/m2
18:39 11.7 °C 5 °C 1026 hPa NE 3.2 km/h 3.2 km/h 64% 0 mm 0.00 W/m2
18:44 11.1 °C 4.4 °C 1026 hPa NE 3.2 km/h 3.2 km/h 64% 0 mm 0.00 W/m2
18:49 11.1 °C 4.4 °C 1026 hPa NE 3.2 km/h 3.2 km/h 65% 0 mm 0.00 W/m2
18:54 11.1 °C 4.4 °C 1026 hPa NE 3.2 km/h 3.2 km/h 65% 0 mm 0.00 W/m2
18:59 10.6 °C 4.4 °C 1026 hPa NE 3.2 km/h 3.2 km/h 66% 0 mm 0.00 W/m2
19:04 10.6 °C 4.4 °C 1026 hPa NE 1.6 km/h 3.2 km/h 67% 0 mm 0.00 W/m2
19:09 10.6 °C 4.4 °C 1026 hPa NE 3.2 km/h 4.8 km/h 67% 0 mm 0.00 W/m2
19:14 10 °C 4.4 °C 1026 hPa NE 1.6 km/h 3.2 km/h 67% 0 mm 0.00 W/m2
19:19 10 °C 4.4 °C 1026 hPa NE 3.2 km/h 3.2 km/h 68% 0 mm 0.00 W/m2
19:24 10 °C 4.4 °C 1026 hPa NE 3.2 km/h 3.2 km/h 68% 0 mm 0.00 W/m2
19:29 10 °C 4.4 °C 1026 hPa NE 1.6 km/h 1.6 km/h 69% 0 mm 0.00 W/m2
19:34 9.4 °C 4.4 °C 1026 hPa NE 1.6 km/h 1.6 km/h 69% 0 mm 0.00 W/m2
19:39 9.4 °C 3.9 °C 1026 hPa NE 1.6 km/h 1.6 km/h 69% 0 mm 0.00 W/m2
19:44 9.4 °C 3.9 °C 1026 hPa NE 1.6 km/h 3.2 km/h 69% 0 mm 0.00 W/m2
19:49 9.4 °C 3.9 °C 1026 hPa NE 1.6 km/h 3.2 km/h 70% 0 mm 0.00 W/m2
19:54 8.9 °C 3.9 °C 1026 hPa NNE 4.8 km/h 4.8 km/h 70% 0 mm 0.00 W/m2
19:59 8.9 °C 3.9 °C 1026 hPa North 6.4 km/h 6.4 km/h 70% 0 mm 0.00 W/m2
20:04 8.9 °C 3.9 °C 1026 hPa North 3.2 km/h 3.2 km/h 70% 0 mm 0.00 W/m2
20:09 8.9 °C 3.3 °C 1026 hPa North 3.2 km/h 3.2 km/h 70% 0 mm 0.00 W/m2
20:14 8.9 °C 3.9 °C 1026 hPa North 3.2 km/h 3.2 km/h 71% 0 mm 0.00 W/m2
20:19 8.9 °C 3.9 °C 1026 hPa North 1.6 km/h 1.6 km/h 71% 0 mm 0.00 W/m2
20:24 8.3 °C 3.3 °C 1026 hPa North 3.2 km/h 3.2 km/h 71% 0 mm 0.00 W/m2
20:29 8.3 °C 3.3 °C 1026 hPa North 1.6 km/h 3.2 km/h 71% 0 mm 0.00 W/m2
20:34 8.3 °C 3.3 °C 1026 hPa Calm     70% 0 mm 0.00 W/m2
20:39 8.3 °C 3.3 °C 1026 hPa Calm     70% 0 mm 0.00 W/m2
20:44 8.3 °C 2.8 °C 1026 hPa North 1.6 km/h 1.6 km/h 70% 0 mm 0.00 W/m2
20:49 7.8 °C 3.3 °C 1026 hPa North 1.6 km/h 1.6 km/h 71% 0 mm 0.00 W/m2
20:54 7.8 °C 2.8 °C 1026 hPa North 1.6 km/h 1.6 km/h 71% 0 mm 0.00 W/m2
20:59 7.8 °C 2.8 °C 1026 hPa North 3.2 km/h 3.2 km/h 71% 0 mm 0.00 W/m2
21:04 7.8 °C 2.8 °C 1026 hPa Calm     71% 0 mm 0.00 W/m2
21:09 7.8 °C 2.8 °C 1026 hPa Calm     71% 0 mm 0.00 W/m2
21:14 7.2 °C 2.2 °C 1026 hPa Calm     71% 0 mm 0.00 W/m2
21:19 7.2 °C 2.2 °C 1026 hPa Calm     71% 0 mm 0.00 W/m2
21:24 7.2 °C 2.2 °C 1026 hPa Calm     71% 0 mm 0.00 W/m2
21:29 7.2 °C 2.2 °C 1026 hPa North 3.2 km/h 3.2 km/h 72% 0 mm 0.00 W/m2
21:34 6.7 °C 2.2 °C 1026 hPa North 3.2 km/h 3.2 km/h 72% 0 mm 0.00 W/m2
21:39 6.7 °C 2.2 °C 1026 hPa North 3.2 km/h 3.2 km/h 72% 0 mm 0.00 W/m2
21:44 6.7 °C 2.2 °C 1026 hPa North 3.2 km/h 3.2 km/h 73% 0 mm 0.00 W/m2
21:49 6.7 °C 2.2 °C 1026 hPa North 1.6 km/h 3.2 km/h 73% 0 mm 0.00 W/m2
21:54 6.7 °C 2.2 °C 1026 hPa North 1.6 km/h 1.6 km/h 73% 0 mm 0.00 W/m2
21:59 6.7 °C 2.2 °C 1026 hPa North 3.2 km/h 3.2 km/h 74% 0 mm 0.00 W/m2
22:04 6.1 °C 2.2 °C 1026 hPa North 3.2 km/h 3.2 km/h 74% 0 mm 0.00 W/m2
22:09 6.1 °C 2.2 °C 1026 hPa North 3.2 km/h 3.2 km/h 74% 0 mm 0.00 W/m2
22:14 6.1 °C 2.2 °C 1026 hPa North 4.8 km/h 4.8 km/h 74% 0 mm 0.00 W/m2
22:19 6.1 °C 1.7 °C 1026 hPa North 3.2 km/h 4.8 km/h 73% 0 mm 0.00 W/m2
22:24 6.7 °C 1.7 °C 1026 hPa North 3.2 km/h 3.2 km/h 73% 0 mm 0.00 W/m2
22:29 6.7 °C 2.2 °C 1026 hPa North 6.4 km/h 6.4 km/h 73% 0 mm 0.00 W/m2
22:34 6.7 °C 2.2 °C 1026 hPa NNE 6.4 km/h 6.4 km/h 73% 0 mm 0.00 W/m2
22:39 6.7 °C 2.2 °C 1026 hPa NE 6.4 km/h 6.4 km/h 72% 0 mm 0.00 W/m2
22:44 6.7 °C 1.7 °C 1029.3 hPa NE 6.4 km/h 6.4 km/h 70% 0 mm 0.00 W/m2
22:49 7.2 °C 1.7 °C 1029.3 hPa NE 8 km/h 8 km/h 69% 0 mm 0.00 W/m2
22:54 7.2 °C 1.7 °C 1029.3 hPa NE 6.4 km/h 8 km/h 68% 0 mm 0.00 W/m2
22:59 7.2 °C 1.7 °C 1029.3 hPa NE 8 km/h 9.7 km/h 67% 0 mm 0.00 W/m2
23:04 7.8 °C 1.7 °C 1029.3 hPa NE 8 km/h 9.7 km/h 67% 0 mm 0.00 W/m2
23:09 7.8 °C 1.7 °C 1026 hPa NE 4.8 km/h 6.4 km/h 66% 0 mm 0.00 W/m2
23:14 7.8 °C 1.7 °C 1029.3 hPa NE 6.4 km/h 9.7 km/h 66% 0 mm 0.00 W/m2
23:19 7.8 °C 1.7 °C 1029.3 hPa NE 6.4 km/h 6.4 km/h 65% 0 mm 0.00 W/m2
23:24 7.8 °C 1.7 °C 1029.3 hPa ENE 8 km/h 8 km/h 64% 0 mm 0.00 W/m2
23:29 7.8 °C 1.7 °C 1029.3 hPa ENE 6.4 km/h 8 km/h 64% 0 mm 0.00 W/m2
23:34 7.8 °C 1.7 °C 1026 hPa NE 8 km/h 8 km/h 64% 0 mm 0.00 W/m2
23:39 7.8 °C 1.7 °C 1026 hPa ENE 8 km/h 9.7 km/h 64% 0 mm 0.00 W/m2
23:44 7.8 °C 1.1 °C 1026 hPa NE 6.4 km/h 9.7 km/h 63% 0 mm 0.00 W/m2
23:49 7.8 °C 1.1 °C 1026 hPa NE 4.8 km/h 4.8 km/h 63% 0 mm 0.00 W/m2
23:54 7.8 °C 1.1 °C 1026 hPa ENE 6.4 km/h 6.4 km/h 63% 0 mm 0.00 W/m2
23:59 7.8 °C 1.1 °C 1026 hPa East 4.8 km/h 6.4 km/h 63% 0 mm 0.00 W/m2
Villages of Bridgestone, Spring, TX USA
Compliments of Weather Underground - 4 mb